KJKJ

Details ICAO KJKJ
Name MOORHEAD MUNI
Region United States
Timezone America/Chicago (UTC-5.0)
Plans Departing 2
Arriving 0
Stats Elevation 917 ft / 280 m (AMSL)
Location 46.839271° -96.663745°
Runways 1
Magnetic Variation 2.788° E
Sunrise 2018-05-24 10:43:38 UTC / 2018-05-24 05:43:38 Local
Sunset 2018-05-25 02:06:17 UTC / 2018-05-24 21:06:17 Local
Advertisement - Login to hide

Runways

ID Width Length Bearing (true) Bearing (mag) Surface Threshold Offset Overrun Length
12 75 ft / 23 m 4,291 ft / 1,308 m 116.47° 113.68° Asphalt 0 ft / 0 m 0 ft / 0 m
30 75 ft / 23 m 4,291 ft / 1,308 m 296.48° 293.69° Asphalt 0 ft / 0 m 0 ft / 0 m

Map

Weather


0- 5 10 15 20 25 30 35+ Temperature / ° C

Clouds and Precipitation
Forecast for 2018-05-24 12:00 UTC. Updated 5 hours ago

Ground ~20,000 ft ~40,000 ft Winds

METAR

KJKJ 241535Z AUTO 20008KT 10SM SCT100 22/18 A2988 RMK AO2

TAF

Not found

Frequencies

Recorded 120.00 MHz AWOS 3
Approach 120.40 MHz FARGO APP/DEP
Unicom 123.00 MHz CTAF/UNICOM
Warning: Do not use this data for real-world aviation or navigation. No guarantee of current accuracy is given.